Time;durP1;ratioP1;P1;durP2;ratioP2;P2;SDS_P1;SDS_P2;PMS_P1;PMS_P2;Temp;Humidity;BMP_temperature;BMP_pressure;BME280_temperature;BME280_humidity;BME280_pressure;Samples;Min_cycle;Max_cycle;Signal;HPM_P1;HPM_P2
2020/12/10 00:00:35;;;;;;;1.75;1.42;;;1.40;99.90;;;;;;5109053;28;20183;-70
2020/12/10 00:03:01;;;;;;;0.10;0.10;;;1.50;99.90;;;;;;5109278;28;20164;-69
2020/12/10 00:05:27;;;;;;;1.05;1.05;;;1.40;99.90;;;;;;5109055;28;20156;-68
2020/12/10 00:07:53;;;;;;;0.10;0.10;;;1.40;99.90;;;;;;5107851;28;20171;-70
2020/12/10 00:10:19;;;;;;;0.15;0.15;;;1.40;99.90;;;;;;5107711;28;20191;-70
2020/12/10 00:12:45;;;;;;;0.10;0.10;;;1.40;99.90;;;;;;5109180;28;20219;-70
2020/12/10 00:15:12;;;;;;;1.25;0.90;;;1.40;99.90;;;;;;5109014;28;20160;-70
2020/12/10 00:17:39;;;;;;;0.20;0.20;;;1.40;99.90;;;;;;5108925;28;20168;-69
2020/12/10 00:20:06;;;;;;;0.10;0.10;;;1.40;99.90;;;;;;5110516;28;20558;-70
2020/12/10 00:22:34;;;;;;;0.13;0.13;;;1.40;99.90;;;;;;5112794;28;20616;-70
2020/12/10 00:25:00;;;;;;;0.60;0.60;;;1.50;99.90;;;;;;5111287;28;20171;-70
2020/12/10 00:27:26;;;;;;;0.15;0.15;;;1.50;99.90;;;;;;5111174;28;20199;-70
2020/12/10 00:29:56;;;;;;;1.40;1.30;;;1.40;99.90;;;;;;5112474;28;20191;-70
2020/12/10 00:32:26;;;;;;;0.45;0.45;;;1.40;99.90;;;;;;5099572;28;20160;-70
2020/12/10 00:34:56;;;;;;;0.22;0.22;;;1.50;99.90;;;;;;5092121;28;20635;-70
2020/12/10 00:37:27;;;;;;;0.52;0.52;;;1.50;99.90;;;;;;5090757;28;20176;-70
2020/12/10 00:39:53;;;;;;;0.75;0.75;;;1.50;99.90;;;;;;5091739;28;20591;-70
2020/12/10 00:42:19;;;;;;;0.10;0.10;;;1.50;99.90;;;;;;5090607;28;20172;-70
2020/12/10 00:44:45;;;;;;;0.32;0.32;;;1.50;99.90;;;;;;5090656;28;20171;-70
2020/12/10 00:47:11;;;;;;;0.55;0.55;;;1.60;99.90;;;;;;5091764;28;20226;-70
2020/12/10 00:49:37;;;;;;;0.82;0.82;;;1.60;99.90;;;;;;5090497;28;20215;-70
2020/12/10 00:52:03;;;;;;;0.38;0.38;;;1.50;99.90;;;;;;5091798;28;20225;-69
2020/12/10 00:54:28;;;;;;;0.20;0.20;;;1.60;99.90;;;;;;5091784;28;20156;-70
2020/12/10 00:56:54;;;;;;;0.10;0.10;;;1.60;99.90;;;;;;5090427;28;20201;-70
2020/12/10 00:59:20;;;;;;;1.13;1.13;;;1.60;99.90;;;;;;5090187;28;20237;-70
2020/12/10 01:01:46;;;;;;;2.72;0.93;;;1.50;99.90;;;;;;5091683;28;20183;-70
2020/12/10 01:04:13;;;;;;;0.55;0.45;;;1.50;99.90;;;;;;5091571;28;20195;-70
2020/12/10 01:06:39;;;;;;;0.10;0.10;;;1.50;99.90;;;;;;5091410;28;20232;-70
2020/12/10 01:09:07;;;;;;;0.30;0.30;;;1.60;99.90;;;;;;5091521;28;20156;-70
2020/12/10 01:11:34;;;;;;;0.50;0.50;;;1.60;99.90;;;;;;5091406;28;20222;-70
2020/12/10 01:14:00;;;;;;;0.10;0.10;;;1.60;99.90;;;;;;5091289;28;20148;-69
2020/12/10 01:16:26;;;;;;;0.47;0.47;;;1.60;99.90;;;;;;5091259;28;20160;-69
2020/12/10 01:18:53;;;;;;;0.28;0.28;;;1.60;99.90;;;;;;5091257;28;20156;-69
2020/12/10 01:21:35;;;;;;;1.13;1.13;;;1.60;99.90;;;;;;5091021;28;20214;-70
2020/12/10 01:24:02;;;;;;;0.57;0.57;;;1.60;99.90;;;;;;5073570;28;20176;-70
2020/12/10 01:26:33;;;;;;;0.20;0.20;;;1.60;99.90;;;;;;5091097;28;20272;-70
2020/12/10 01:29:03;;;;;;;0.10;0.10;;;1.60;99.90;;;;;;5091054;28;20613;-70
2020/12/10 01:31:29;;;;;;;0.17;0.17;;;1.60;99.90;;;;;;5095128;28;20237;-70
2020/12/10 01:33:55;;;;;;;0.20;0.20;;;1.50;99.90;;;;;;5111279;28;20152;-70
2020/12/10 01:36:26;;;;;;;1.98;1.65;;;1.50;99.90;;;;;;5111361;28;20222;-70
2020/12/10 01:38:51;;;;;;;0.45;0.45;;;1.60;99.90;;;;;;5109868;28;20218;-70
2020/12/10 01:41:18;;;;;;;0.20;0.20;;;1.60;99.90;;;;;;5110864;28;20231;-69
2020/12/10 01:43:45;;;;;;;0.10;0.10;;;1.60;99.90;;;;;;5111043;28;20163;-69
2020/12/10 01:46:11;;;;;;;1.58;1.50;;;1.60;99.90;;;;;;5111084;28;20215;-70
2020/12/10 01:48:37;;;;;;;0.20;0.20;;;1.60;99.90;;;;;;5110816;28;20160;-69
2020/12/10 01:51:04;;;;;;;1.08;1.08;;;1.50;99.90;;;;;;5110909;28;20690;-70
2020/12/10 01:53:30;;;;;;;0.70;0.70;;;1.60;99.90;;;;;;5109595;28;20163;-68
2020/12/10 01:55:56;;;;;;;0.95;0.95;;;1.60;99.90;;;;;;5110931;28;20166;-70
2020/12/10 01:58:22;;;;;;;0.63;0.63;;;1.50;99.90;;;;;;5110867;28;20190;-70
2020/12/10 02:00:50;;;;;;;0.38;0.38;;;1.50;99.90;;;;;;5109495;28;20203;-70
2020/12/10 02:03:16;;;;;;;0.80;0.80;;;1.50;99.90;;;;;;5109437;28;20171;-69
2020/12/10 02:05:44;;;;;;;0.38;0.38;;;1.50;99.90;;;;;;5109312;28;20178;-70
2020/12/10 02:08:10;;;;;;;0.10;0.10;;;1.40;99.90;;;;;;5109312;28;20259;-69
2020/12/10 02:10:37;;;;;;;0.20;0.20;;;1.40;99.90;;;;;;5110480;28;20187;-69
2020/12/10 02:13:03;;;;;;;0.50;0.50;;;1.50;99.90;;;;;;5090754;28;20223;-70
2020/12/10 02:15:29;;;;;;;0.45;0.45;;;1.50;99.90;;;;;;5090329;28;20172;-69
2020/12/10 02:17:55;;;;;;;0.25;0.25;;;1.40;99.90;;;;;;5090154;28;20679;-69
2020/12/10 02:20:22;;;;;;;0.43;0.43;;;1.40;99.90;;;;;;5090019;28;20188;-69
2020/12/10 02:22:58;;;;;;;0.17;0.17;;;1.40;99.90;;;;;;5088010;28;20218;-69
2020/12/10 02:25:24;;;;;;;1.98;1.88;;;1.50;99.90;;;;;;5089527;28;20159;-69
2020/12/10 02:27:50;;;;;;;0.30;0.30;;;1.40;99.90;;;;;;5089329;28;20191;-69
2020/12/10 02:30:15;;;;;;;1.95;1.38;;;1.40;99.90;;;;;;5089849;28;20188;-69
2020/12/10 02:32:41;;;;;;;0.63;0.63;;;1.40;99.90;;;;;;5089795;28;20637;-69
2020/12/10 02:35:07;;;;;;;0.30;0.30;;;1.30;99.90;;;;;;5090046;28;20191;-69
2020/12/10 02:37:33;;;;;;;0.15;0.15;;;1.30;99.90;;;;;;5089937;28;20167;-69
2020/12/10 02:39:58;;;;;;;1.17;1.10;;;1.40;99.90;;;;;;5089476;28;20242;-70
2020/12/10 02:42:24;;;;;;;0.85;0.73;;;1.50;99.90;;;;;;5089267;28;20160;-69
2020/12/10 02:44:50;;;;;;;2.03;0.70;;;1.40;99.90;;;;;;5088493;28;20183;-69
2020/12/10 02:47:16;;;;;;;0.40;0.38;;;1.40;99.90;;;;;;5089783;28;20217;-69
2020/12/10 02:49:42;;;;;;;0.35;0.35;;;1.40;99.90;;;;;;5089577;28;20251;-70
2020/12/10 02:52:08;;;;;;;0.10;0.10;;;1.40;99.90;;;;;;5089422;28;20173;-70
2020/12/10 02:54:34;;;;;;;0.30;0.30;;;1.40;99.90;;;;;;5089746;28;20167;-70
2020/12/10 02:57:01;;;;;;;2.28;1.55;;;1.40;99.90;;;;;;5089522;28;20160;-70
2020/12/10 02:59:27;;;;;;;1.10;1.10;;;1.40;99.90;;;;;;5089082;28;20183;-70
2020/12/10 03:01:53;;;;;;;0.82;0.82;;;1.50;99.90;;;;;;5089251;28;20199;-70
2020/12/10 03:04:19;;;;;;;0.30;0.30;;;1.50;99.90;;;;;;5089415;28;20513;-70
2020/12/10 03:06:45;;;;;;;0.10;0.10;;;1.50;99.90;;;;;;5089515;28;20191;-70
2020/12/10 03:09:11;;;;;;;1.48;1.38;;;1.60;99.90;;;;;;5089420;28;20210;-69
2020/12/10 03:11:37;;;;;;;0.32;0.32;;;1.60;99.90;;;;;;5089243;28;20156;-70
2020/12/10 03:14:03;;;;;;;1.85;1.75;;;1.60;99.90;;;;;;5089390;28;20167;-69
2020/12/10 03:16:29;;;;;;;0.20;0.20;;;1.70;99.90;;;;;;5089317;28;20164;-70
2020/12/10 03:18:54;;;;;;;0.10;0.10;;;2.10;99.90;;;;;;5087851;28;20180;-69
2020/12/10 03:21:20;;;;;;;0.10;0.10;;;2.30;99.90;;;;;;5089161;28;20245;-69
2020/12/10 03:23:46;;;;;;;0.25;0.25;;;2.40;99.90;;;;;;5089216;28;20162;-69
2020/12/10 03:26:12;;;;;;;0.75;0.75;;;2.30;99.90;;;;;;5089120;28;20215;-70
2020/12/10 03:28:38;;;;;;;0.40;0.40;;;2.30;99.90;;;;;;5089294;28;20183;-69
2020/12/10 03:31:04;;;;;;;0.30;0.30;;;2.30;99.90;;;;;;5087701;28;20259;-70
2020/12/10 03:33:30;;;;;;;2.30;1.08;;;2.30;99.90;;;;;;5088915;28;20156;-70
2020/12/10 03:35:56;;;;;;;0.10;0.10;;;2.30;99.90;;;;;;5088962;28;20168;-69
2020/12/10 03:38:22;;;;;;;0.15;0.15;;;2.30;99.90;;;;;;5088958;28;20203;-70
2020/12/10 03:40:48;;;;;;;0.20;0.20;;;2.40;99.90;;;;;;5088585;28;20230;-69
2020/12/10 03:43:13;;;;;;;0.10;0.10;;;2.40;99.90;;;;;;5088724;28;20156;-70
2020/12/10 03:45:39;;;;;;;0.30;0.30;;;2.40;99.90;;;;;;5087328;28;20187;-70
2020/12/10 03:48:05;;;;;;;0.20;0.20;;;2.30;99.90;;;;;;5088737;28;20183;-68
2020/12/10 03:50:31;;;;;;;0.17;0.17;;;2.10;99.90;;;;;;5088570;28;20188;-69
2020/12/10 03:52:57;;;;;;;0.20;0.20;;;2.00;99.90;;;;;;5087531;28;20176;-69
2020/12/10 03:55:23;;;;;;;1.17;0.70;;;2.00;99.90;;;;;;5090572;28;20164;-69
2020/12/10 03:57:49;;;;;;;0.10;0.10;;;2.00;99.90;;;;;;5091157;28;20183;-70
2020/12/10 04:00:15;;;;;;;0.10;0.10;;;2.00;99.90;;;;;;5092520;28;20192;-69
2020/12/10 04:02:41;;;;;;;0.17;0.17;;;2.00;99.90;;;;;;5091988;28;20160;-69
2020/12/10 04:05:06;;;;;;;0.40;0.40;;;2.10;99.90;;;;;;5091207;28;20180;-70
2020/12/10 04:07:32;;;;;;;0.20;0.20;;;2.00;99.90;;;;;;5092309;28;20248;-70
2020/12/10 04:09:58;;;;;;;0.10;0.10;;;1.90;99.90;;;;;;5092311;28;20191;-69
2020/12/10 04:12:25;;;;;;;0.20;0.20;;;1.80;99.90;;;;;;5091032;28;20188;-70
2020/12/10 04:14:51;;;;;;;0.63;0.63;;;1.80;99.90;;;;;;5092179;28;20179;-70
2020/12/10 04:17:16;;;;;;;0.95;0.95;;;1.90;99.90;;;;;;5092346;28;20613;-70
2020/12/10 04:19:42;;;;;;;0.45;0.45;;;1.90;99.90;;;;;;5092074;28;20221;-70
2020/12/10 04:22:08;;;;;;;0.45;0.45;;;1.80;99.90;;;;;;5092184;28;20167;-70
2020/12/10 04:24:34;;;;;;;0.10;0.10;;;1.90;99.90;;;;;;5092232;28;20160;-70
2020/12/10 04:27:00;;;;;;;1.75;1.65;;;1.90;99.90;;;;;;5090797;28;20219;-71
2020/12/10 04:29:25;;;;;;;0.40;0.40;;;1.80;99.90;;;;;;5091809;28;20621;-70
2020/12/10 04:31:51;;;;;;;0.10;0.10;;;1.80;99.90;;;;;;5091987;28;20160;-70
2020/12/10 04:34:17;;;;;;;0.57;0.57;;;1.90;99.90;;;;;;5090661;28;20168;-70
2020/12/10 04:36:47;;;;;;;0.20;0.20;;;1.80;99.90;;;;;;5096292;28;20183;-70
2020/12/10 04:39:14;;;;;;;0.10;0.10;;;1.80;99.90;;;;;;5105253;28;20163;-71
2020/12/10 04:41:41;;;;;;;1.17;1.17;;;1.80;99.90;;;;;;5094837;28;20280;-68
2020/12/10 04:44:06;;;;;;;0.20;0.20;;;1.80;99.90;;;;;;5092569;28;20148;-71
2020/12/10 04:46:34;;;;;;;2.13;1.98;;;1.70;99.90;;;;;;5111776;28;20256;-71
2020/12/10 04:49:02;;;;;;;1.13;1.13;;;1.70;99.90;;;;;;5112073;28;20183;-70
2020/12/10 04:51:29;;;;;;;0.65;0.65;;;1.80;99.90;;;;;;5111168;28;20199;-70
2020/12/10 04:53:55;;;;;;;0.55;0.55;;;1.70;99.90;;;;;;5108641;28;20167;-70
2020/12/10 04:56:21;;;;;;;0.15;0.15;;;1.70;99.90;;;;;;5109790;28;20159;-70
2020/12/10 04:58:47;;;;;;;0.20;0.20;;;1.70;99.90;;;;;;5108641;28;20171;-70
2020/12/10 05:01:15;;;;;;;0.15;0.15;;;1.80;99.90;;;;;;5107839;28;20195;-70
2020/12/10 05:03:46;;;;;;;0.45;0.45;;;1.70;99.90;;;;;;5108080;28;20213;-70
2020/12/10 05:06:14;;;;;;;1.15;1.15;;;1.70;99.90;;;;;;5109889;28;20195;-70
2020/12/10 05:08:41;;;;;;;0.20;0.20;;;1.70;99.90;;;;;;5109065;28;20221;-70
2020/12/10 05:11:08;;;;;;;0.10;0.10;;;1.70;99.90;;;;;;5104495;28;20195;-70
2020/12/10 05:13:35;;;;;;;0.47;0.47;;;1.70;99.90;;;;;;5110103;28;20527;-68
2020/12/10 05:16:01;;;;;;;1.88;1.75;;;1.60;99.90;;;;;;5107591;28;20191;-70
2020/12/10 05:18:28;;;;;;;0.85;0.85;;;1.70;99.90;;;;;;5097946;28;20200;-70
2020/12/10 05:20:56;;;;;;;0.85;0.85;;;1.60;99.90;;;;;;5103721;28;20229;-68
2020/12/10 05:23:46;;;;;;;0.38;0.38;;;1.70;99.90;;;;;;5110414;28;20599;-69
2020/12/10 05:26:12;;;;;;;0.20;0.20;;;1.70;99.90;;;;;;5092674;28;20199;-70
2020/12/10 05:28:49;;;;;;;0.30;0.30;;;1.70;99.90;;;;;;5110651;28;20175;-70
2020/12/10 05:31:17;;;;;;;0.20;0.20;;;1.70;99.90;;;;;;5108483;28;20254;-70
2020/12/10 05:34:03;;;;;;;0.30;0.25;;;1.70;99.90;;;;;;5111001;28;20168;-70
2020/12/10 05:36:30;;;;;;;0.10;0.10;;;1.70;99.90;;;;;;5110983;28;20170;-70
2020/12/10 05:39:04;;;;;;;0.10;0.10;;;1.70;99.90;;;;;;5110739;28;20165;-70
2020/12/10 05:41:33;;;;;;;0.63;0.63;;;1.70;99.90;;;;;;5103062;28;20226;-70
2020/12/10 05:44:22;;;;;;;0.20;0.20;;;1.70;99.90;;;;;;5108750;28;20648;-70
2020/12/10 05:47:12;;;;;;;0.20;0.20;;;1.80;99.90;;;;;;5105203;28;20208;-71
2020/12/10 05:49:39;;;;;;;0.10;0.10;;;1.70;99.90;;;;;;5110040;28;20211;-68
2020/12/10 05:52:06;;;;;;;0.30;0.30;;;1.80;99.90;;;;;;5110250;28;20242;-70
2020/12/10 05:54:35;;;;;;;0.20;0.20;;;1.70;99.90;;;;;;5108825;28;20163;-69
2020/12/10 05:57:05;;;;;;;0.32;0.32;;;1.60;99.90;;;;;;5109139;28;20185;-69
2020/12/10 05:59:34;;;;;;;0.10;0.10;;;1.60;99.90;;;;;;5109835;28;20195;-70
2020/12/10 06:02:04;;;;;;;0.25;0.25;;;1.60;99.90;;;;;;5108678;28;20175;-69
2020/12/10 06:04:32;;;;;;;1.10;1.00;;;1.70;99.90;;;;;;5109229;28;20171;-70
2020/12/10 06:07:00;;;;;;;0.45;0.45;;;1.70;99.90;;;;;;5109155;28;20255;-70
2020/12/10 06:09:28;;;;;;;0.20;0.20;;;1.60;99.90;;;;;;5109027;28;20247;-70
2020/12/10 06:12:09;;;;;;;0.65;0.65;;;1.70;99.90;;;;;;5107314;28;20227;-70
2020/12/10 06:14:52;;;;;;;1.55;1.45;;;1.70;99.90;;;;;;5109897;28;20155;-70
2020/12/10 06:17:19;;;;;;;1.20;1.20;;;1.70;99.90;;;;;;5109180;28;20172;-70
2020/12/10 06:19:46;;;;;;;0.38;0.38;;;1.80;99.90;;;;;;5109359;28;20191;-70
2020/12/10 06:22:27;;;;;;;1.95;1.55;;;1.80;99.90;;;;;;5109303;28;20175;-70
2020/12/10 06:25:10;;;;;;;0.65;0.65;;;1.80;99.90;;;;;;5109485;28;20167;-70
2020/12/10 06:27:36;;;;;;;0.10;0.10;;;1.80;99.90;;;;;;5109427;28;20182;-70
2020/12/10 06:30:19;;;;;;;0.10;0.10;;;1.80;99.90;;;;;;5108316;28;20199;-69
2020/12/10 06:32:47;;;;;;;1.75;1.65;;;1.80;99.90;;;;;;5109296;28;20211;-69
2020/12/10 06:35:36;;;;;;;0.55;0.55;;;1.80;99.90;;;;;;5108541;28;20152;-70
2020/12/10 06:38:09;;;;;;;2.20;0.98;;;1.90;99.90;;;;;;5109638;28;20156;-70
2020/12/10 06:40:36;;;;;;;0.17;0.17;;;1.80;99.90;;;;;;5108389;28;20229;-70
2020/12/10 06:43:07;;;;;;;0.20;0.20;;;1.80;99.90;;;;;;5108159;28;20684;-69
2020/12/10 06:45:41;;;;;;;0.10;0.10;;;1.80;99.90;;;;;;5109153;28;20181;-70
2020/12/10 06:48:12;;;;;;;0.10;0.10;;;1.80;99.90;;;;;;5108066;28;20174;-70
2020/12/10 06:50:40;;;;;;;0.30;0.30;;;1.80;99.90;;;;;;5109465;28;20158;-70
2020/12/10 06:53:15;;;;;;;0.85;0.55;;;1.80;99.90;;;;;;5107104;28;20505;-69
2020/12/10 06:56:00;;;;;;;1.67;1.58;;;1.80;99.90;;;;;;5107332;28;20212;-69
2020/12/10 06:58:54;;;;;;;0.10;0.10;;;1.80;99.90;;;;;;5109173;28;20189;-70
2020/12/10 07:01:35;;;;;;;0.13;0.13;;;1.80;99.90;;;;;;5107565;28;20712;-71
2020/12/10 07:07:07;;;;;;;0.77;0.77;;;1.70;99.90;;;;;;5108954;28;20190;-71
2020/12/10 07:10:01;;;;;;;0.20;0.20;;;1.80;99.90;;;;;;5107199;28;20205;-71
2020/12/10 07:12:40;;;;;;;0.10;0.10;;;1.90;99.90;;;;;;5106705;28;20639;-70
2020/12/10 07:15:16;;;;;;;0.20;0.20;;;1.90;99.90;;;;;;5108506;28;20635;-71
2020/12/10 07:17:49;;;;;;;0.20;0.20;;;1.80;99.90;;;;;;5107002;28;20163;-71
2020/12/10 07:20:15;;;;;;;0.10;0.10;;;1.90;99.90;;;;;;5108520;28;20198;-71
2020/12/10 07:22:42;;;;;;;0.20;0.20;;;1.90;99.90;;;;;;5108779;28;20223;-71
2020/12/10 07:25:07;;;;;;;0.63;0.63;;;1.90;99.90;;;;;;5106484;28;20212;-70
2020/12/10 07:27:33;;;;;;;0.10;0.10;;;2.00;99.90;;;;;;5106914;28;20199;-70
2020/12/10 07:29:59;;;;;;;0.20;0.20;;;2.00;99.90;;;;;;5109352;28;20197;-69
2020/12/10 07:32:46;;;;;;;2.35;2.25;;;2.00;99.90;;;;;;5112311;28;20511;-70
2020/12/10 07:35:12;;;;;;;0.50;0.50;;;2.00;99.90;;;;;;5112418;28;20147;-69
2020/12/10 07:37:39;;;;;;;4.47;2.80;;;2.00;99.90;;;;;;5111183;28;20171;-71
2020/12/10 07:40:16;;;;;;;1.77;1.67;;;2.00;99.90;;;;;;5112313;28;20274;-71
2020/12/10 07:42:43;;;;;;;0.63;0.63;;;2.10;99.90;;;;;;5112326;28;20624;-71
2020/12/10 07:45:15;;;;;;;3.22;3.03;;;2.10;99.90;;;;;;5110231;28;20178;-71
2020/12/10 07:47:42;;;;;;;1.90;1.80;;;2.00;99.90;;;;;;5110982;28;20225;-71
2020/12/10 07:50:23;;;;;;;0.20;0.20;;;2.10;99.90;;;;;;5112391;28;20274;-71
2020/12/10 07:52:52;;;;;;;0.32;0.32;;;2.10;99.90;;;;;;5102071;28;20171;-70
2020/12/10 07:55:34;;;;;;;1.15;1.15;;;2.10;99.90;;;;;;5090949;28;20219;-70
2020/12/10 07:58:11;;;;;;;1.05;1.05;;;2.20;99.90;;;;;;5091673;28;20164;-69
2020/12/10 08:00:40;;;;;;;0.95;0.82;;;2.20;99.90;;;;;;5091885;28;20224;-69
2020/12/10 08:03:13;;;;;;;9.05;1.98;;;2.10;99.90;;;;;;5091686;28;20219;-70
2020/12/10 08:05:42;;;;;;;1.08;0.82;;;2.20;99.90;;;;;;5091882;28;20160;-70
2020/12/10 08:08:10;;;;;;;1.65;1.33;;;2.30;99.90;;;;;;5090339;28;20213;-70
2020/12/10 08:10:36;;;;;;;0.95;0.95;;;2.30;99.90;;;;;;5091855;28;20222;-70
2020/12/10 08:13:11;;;;;;;2.15;2.05;;;2.40;99.90;;;;;;5090698;28;20188;-71
2020/12/10 08:15:38;;;;;;;0.30;0.22;;;2.40;99.90;;;;;;5095709;28;20201;-71
2020/12/10 08:18:06;;;;;;;1.65;1.55;;;2.50;99.90;;;;;;5109224;28;20198;-70
2020/12/10 08:20:47;;;;;;;1.67;1.58;;;2.50;99.90;;;;;;5093959;28;20278;-70
2020/12/10 08:23:18;;;;;;;1.42;1.33;;;2.50;99.90;;;;;;5094020;28;20671;-72
2020/12/10 08:25:50;;;;;;;2.38;2.20;;;2.50;99.90;;;;;;5090266;28;20187;-70
2020/12/10 08:28:16;;;;;;;1.05;1.05;;;2.60;99.90;;;;;;5090386;28;20192;-71
2020/12/10 08:30:56;;;;;;;2.80;2.03;;;2.70;99.90;;;;;;5089204;28;20186;-69
2020/12/10 08:33:37;;;;;;;8.48;7.13;;;2.70;99.90;;;;;;5073685;28;20191;-70
2020/12/10 08:36:21;;;;;;;0.45;0.45;;;2.80;99.90;;;;;;5091715;28;20234;-69
2020/12/10 08:38:52;;;;;;;1.23;1.23;;;2.80;99.90;;;;;;5091040;28;20179;-69
2020/12/10 08:41:33;;;;;;;0.95;0.95;;;2.80;99.90;;;;;;5088495;28;20631;-70
2020/12/10 08:44:03;;;;;;;0.22;0.22;;;2.90;99.90;;;;;;5088833;28;20176;-70
2020/12/10 08:46:30;;;;;;;0.28;0.28;;;2.90;99.90;;;;;;5088951;28;20212;-70
2020/12/10 08:48:57;;;;;;;0.47;0.47;;;3.00;99.90;;;;;;5090558;28;20148;-70
2020/12/10 08:51:36;;;;;;;0.70;0.70;;;3.00;99.90;;;;;;5089050;28;20231;-70
2020/12/10 08:54:04;;;;;;;1.15;1.02;;;3.10;99.90;;;;;;5106687;28;20167;-70
2020/12/10 08:56:35;;;;;;;1.23;1.17;;;3.10;99.90;;;;;;5093304;28;20187;-69
2020/12/10 08:59:03;;;;;;;1.75;1.65;;;3.20;99.90;;;;;;5110710;28;20191;-69
2020/12/10 09:01:31;;;;;;;1.25;1.17;;;3.20;99.90;;;;;;5109040;28;20248;-70
2020/12/10 09:03:57;;;;;;;4.68;1.42;;;3.30;99.90;;;;;;5089755;28;20177;-70
2020/12/10 09:06:32;;;;;;;1.15;0.77;;;3.30;99.90;;;;;;5089619;28;20195;-69
2020/12/10 09:08:58;;;;;;;1.13;1.02;;;3.30;99.90;;;;;;5090446;28;20165;-72
2020/12/10 09:11:23;;;;;;;0.57;0.57;;;3.40;99.90;;;;;;5089675;28;20184;-69
2020/12/10 09:13:49;;;;;;;0.10;0.10;;;3.50;99.90;;;;;;5089188;28;20168;-70
2020/12/10 09:16:17;;;;;;;0.38;0.25;;;3.40;99.90;;;;;;5071896;28;20183;-69
2020/12/10 09:18:44;;;;;;;0.13;0.13;;;3.50;99.90;;;;;;5089737;28;20267;-70
2020/12/10 09:21:10;;;;;;;0.10;0.10;;;3.50;99.90;;;;;;5108134;28;20175;-70
2020/12/10 09:23:44;;;;;;;0.30;0.30;;;3.60;99.90;;;;;;5090916;28;20264;-70
2020/12/10 09:26:16;;;;;;;0.10;0.10;;;3.60;99.90;;;;;;5096708;28;20190;-69
2020/12/10 09:29:02;;;;;;;0.10;0.10;;;3.60;99.90;;;;;;5110686;28;20177;-70
2020/12/10 09:31:28;;;;;;;0.10;0.10;;;3.70;99.90;;;;;;5110280;28;20269;-70
2020/12/10 09:34:13;;;;;;;0.20;0.20;;;3.70;99.90;;;;;;5110691;28;20187;-70
2020/12/10 09:36:39;;;;;;;0.10;0.10;;;3.70;99.90;;;;;;5110531;28;20240;-70
2020/12/10 09:39:05;;;;;;;0.17;0.17;;;3.70;99.90;;;;;;5110738;28;20183;-70
2020/12/10 09:41:32;;;;;;;0.20;0.20;;;3.70;99.90;;;;;;5108228;28;20227;-71
2020/12/10 09:43:58;;;;;;;0.30;0.30;;;3.60;99.90;;;;;;5110416;28;20166;-70
2020/12/10 09:46:24;;;;;;;0.30;0.30;;;3.60;99.90;;;;;;5110203;28;20199;-70
2020/12/10 09:49:02;;;;;;;0.10;0.10;;;3.60;99.90;;;;;;5111081;28;20182;-70
2020/12/10 09:51:34;;;;;;;0.00;0.00;;;3.70;99.90;;;;;;5110087;28;20163;-70
2020/12/10 09:54:18;;;;;;;0.13;0.13;;;3.70;99.90;;;;;;5108236;28;20184;-70
2020/12/10 09:59:25;;;;;;;0.10;0.10;;;3.70;99.90;;;;;;5109156;28;20171;-70
2020/12/10 10:01:51;;;;;;;0.10;0.10;;;3.70;99.90;;;;;;5110170;28;20191;-70
2020/12/10 10:04:18;;;;;;;0.10;0.10;;;3.60;99.90;;;;;;5109728;28;20163;-70
2020/12/10 10:06:44;;;;;;;0.10;0.10;;;3.70;99.90;;;;;;5108655;28;20206;-69
2020/12/10 10:09:15;;;;;;;0.65;0.65;;;3.70;99.90;;;;;;5108667;28;20259;-69
2020/12/10 10:12:00;;;;;;;0.10;0.10;;;3.70;99.90;;;;;;5108224;28;20202;-69
2020/12/10 10:14:26;;;;;;;0.10;0.10;;;3.70;99.90;;;;;;5109779;28;20163;-70
2020/12/10 10:16:55;;;;;;;0.10;0.10;;;3.70;99.90;;;;;;5109552;28;20159;-70
2020/12/10 10:19:41;;;;;;;0.45;0.45;;;3.70;99.90;;;;;;5109129;28;20160;-70
2020/12/10 10:22:06;;;;;;;0.80;0.80;;;3.60;99.90;;;;;;5108872;28;20201;-70
2020/12/10 10:24:33;;;;;;;0.40;0.40;;;3.70;99.90;;;;;;5109320;28;20230;-70
2020/12/10 10:27:01;;;;;;;0.25;0.25;;;3.70;99.90;;;;;;5109084;28;20203;-70
2020/12/10 10:29:27;;;;;;;0.10;0.10;;;3.70;99.90;;;;;;5091461;28;20176;-70
2020/12/10 10:31:54;;;;;;;0.35;0.35;;;3.60;99.90;;;;;;5108910;28;20297;-70
2020/12/10 10:34:20;;;;;;;1.05;1.00;;;3.50;99.90;;;;;;5109808;28;20152;-70
2020/12/10 10:36:53;;;;;;;0.22;0.22;;;3.50;99.90;;;;;;5108035;28;20240;-69
2020/12/10 10:39:19;;;;;;;0.10;0.10;;;3.50;99.90;;;;;;5107500;28;20214;-70
2020/12/10 10:41:50;;;;;;;0.20;0.20;;;3.40;99.90;;;;;;5107941;28;20171;-68
2020/12/10 10:44:16;;;;;;;0.10;0.10;;;3.40;99.90;;;;;;5107530;28;20187;-70
2020/12/10 10:46:44;;;;;;;0.05;0.05;;;3.40;99.90;;;;;;5108274;28;20206;-68
2020/12/10 10:49:13;;;;;;;0.30;0.22;;;3.40;99.90;;;;;;5107841;28;20172;-70
2020/12/10 10:51:42;;;;;;;0.52;0.52;;;3.40;99.90;;;;;;5109346;28;20162;-70
2020/12/10 10:54:08;;;;;;;0.10;0.10;;;3.50;99.90;;;;;;5109464;28;20184;-70
2020/12/10 10:56:37;;;;;;;0.05;0.05;;;3.50;99.90;;;;;;5109134;28;20168;-70
2020/12/10 10:59:03;;;;;;;0.10;0.10;;;3.50;99.90;;;;;;5091576;28;20170;-70
2020/12/10 11:01:29;;;;;;;0.57;0.57;;;3.40;99.90;;;;;;5108457;28;20187;-70
2020/12/10 11:03:56;;;;;;;0.30;0.30;;;3.40;99.90;;;;;;5106974;28;20540;-69
2020/12/10 11:06:34;;;;;;;0.20;0.20;;;3.40;99.90;;;;;;5109026;28;20263;-70
2020/12/10 11:09:00;;;;;;;0.45;0.45;;;3.40;99.90;;;;;;5107525;28;20194;-70
2020/12/10 11:11:26;;;;;;;0.10;0.10;;;3.50;99.90;;;;;;5109193;28;20235;-70
2020/12/10 11:13:56;;;;;;;0.10;0.10;;;3.50;99.90;;;;;;5109210;28;20175;-69
2020/12/10 11:16:22;;;;;;;0.20;0.20;;;3.60;99.90;;;;;;5107509;28;20171;-70
2020/12/10 11:18:48;;;;;;;0.10;0.10;;;3.60;99.90;;;;;;5109017;28;20152;-69
2020/12/10 11:21:25;;;;;;;0.32;0.32;;;3.70;99.90;;;;;;5109226;28;20152;-69
2020/12/10 11:24:12;;;;;;;0.22;0.22;;;3.70;99.90;;;;;;5091068;28;20191;-70
2020/12/10 11:26:38;;;;;;;0.08;0.08;;;3.60;99.90;;;;;;5108386;28;20218;-69
2020/12/10 11:29:04;;;;;;;0.40;0.40;;;3.70;99.90;;;;;;5108557;28;20180;-70
2020/12/10 11:31:29;;;;;;;0.10;0.10;;;3.70;99.90;;;;;;5108678;28;20152;-70
2020/12/10 11:33:55;;;;;;;0.10;0.10;;;3.70;99.90;;;;;;5106560;28;20171;-71
2020/12/10 11:36:41;;;;;;;0.10;0.10;;;3.80;99.90;;;;;;5106935;28;20185;-70
2020/12/10 11:39:06;;;;;;;0.28;0.28;;;3.80;99.90;;;;;;5106574;28;20183;-70
2020/12/10 11:41:33;;;;;;;0.10;0.10;;;3.80;99.90;;;;;;5091714;28;20250;-70
2020/12/10 11:44:21;;;;;;;0.10;0.10;;;3.70;99.90;;;;;;5087450;28;20281;-70
2020/12/10 11:46:48;;;;;;;0.00;0.00;;;3.80;99.90;;;;;;5087318;28;20207;-70
2020/12/10 11:49:35;;;;;;;0.20;0.20;;;3.80;99.90;;;;;;5105612;28;20190;-70
2020/12/10 11:52:23;;;;;;;0.10;0.10;;;3.80;99.90;;;;;;5108645;28;20191;-71
2020/12/10 11:54:53;;;;;;;0.10;0.10;;;3.70;99.90;;;;;;5107343;28;20214;-70
2020/12/10 11:57:19;;;;;;;0.10;0.10;;;3.70;99.90;;;;;;5107763;28;20260;-70
2020/12/10 11:59:45;;;;;;;0.10;0.10;;;3.60;99.90;;;;;;5108797;28;20160;-69
2020/12/10 12:02:30;;;;;;;0.30;0.20;;;3.70;99.90;;;;;;5108382;28;20160;-71
2020/12/10 12:05:09;;;;;;;0.63;0.43;;;3.70;99.90;;;;;;5106755;28;20199;-71
2020/12/10 12:07:54;;;;;;;0.10;0.10;;;3.70;99.90;;;;;;5108437;28;20210;-70
2020/12/10 12:10:21;;;;;;;0.08;0.08;;;3.80;99.90;;;;;;5107319;28;20164;-70
2020/12/10 12:13:06;;;;;;;0.10;0.10;;;3.60;99.90;;;;;;5108380;28;20155;-70
2020/12/10 12:15:52;;;;;;;0.30;0.30;;;3.70;99.90;;;;;;5109151;28;20193;-70
2020/12/10 12:18:18;;;;;;;0.10;0.10;;;3.80;99.90;;;;;;5111779;28;20271;-70
2020/12/10 12:20:48;;;;;;;0.20;0.20;;;3.90;99.90;;;;;;5112251;28;20164;-70
2020/12/10 12:23:14;;;;;;;0.10;0.10;;;3.80;99.90;;;;;;5092753;28;20187;-70
2020/12/10 12:25:40;;;;;;;0.35;0.35;;;3.90;99.90;;;;;;5110352;28;20195;-70
2020/12/10 12:28:06;;;;;;;0.25;0.25;;;3.90;99.90;;;;;;5110510;28;20222;-70
2020/12/10 12:30:37;;;;;;;0.10;0.10;;;3.90;99.90;;;;;;5111898;28;20199;-69
2020/12/10 12:33:03;;;;;;;0.10;0.10;;;3.90;99.90;;;;;;5109969;28;20209;-71
2020/12/10 12:35:29;;;;;;;0.10;0.10;;;3.80;99.90;;;;;;5110673;28;20198;-71
2020/12/10 12:37:56;;;;;;;0.10;0.10;;;3.80;99.90;;;;;;5110548;28;20230;-70
2020/12/10 12:40:46;;;;;;;0.35;0.35;;;3.90;99.90;;;;;;5109687;28;20297;-70
2020/12/10 12:43:13;;;;;;;0.10;0.10;;;3.90;99.90;;;;;;5111476;28;20190;-71
2020/12/10 12:45:39;;;;;;;0.10;0.10;;;3.90;99.90;;;;;;5105560;28;20609;-71
2020/12/10 12:48:25;;;;;;;0.10;0.10;;;4.00;99.90;;;;;;5099743;28;20327;-71
2020/12/10 12:50:51;;;;;;;0.10;0.10;;;4.10;99.90;;;;;;5090958;28;20188;-70
2020/12/10 12:53:18;;;;;;;0.10;0.10;;;4.00;99.90;;;;;;5090822;28;20523;-69
2020/12/10 12:55:45;;;;;;;0.22;0.22;;;4.00;99.90;;;;;;5090979;28;20198;-71
2020/12/10 12:58:12;;;;;;;0.10;0.10;;;4.00;99.90;;;;;;5090032;28;20188;-70
2020/12/10 13:01:02;;;;;;;0.00;0.00;;;4.00;99.90;;;;;;5090811;28;20172;-71
2020/12/10 13:03:31;;;;;;;0.08;0.08;;;4.00;99.90;;;;;;5090732;28;20199;-70
2020/12/10 13:06:03;;;;;;;0.10;0.10;;;4.00;99.90;;;;;;5091134;28;20188;-70
2020/12/10 13:08:57;;;;;;;0.10;0.10;;;4.00;99.90;;;;;;5089674;28;20194;-70
2020/12/10 13:11:23;;;;;;;0.10;0.10;;;3.90;99.90;;;;;;5091120;28;20166;-68
2020/12/10 13:14:09;;;;;;;0.00;0.00;;;4.00;99.90;;;;;;5089798;28;20191;-71
2020/12/10 13:16:40;;;;;;;0.10;0.10;;;4.00;99.90;;;;;;5090991;28;20175;-69